Time,TemperatureF,DewpointF,PressureIn,WindDirection,WindDirectionDegrees,WindSpeedMPH,WindSpeedGustMPH,Humidity,HourlyPrecipIn,Conditions,Clouds,dailyrainin,SolarRadiationWatts/m^2,SoftwareType,DateUTC
2013-02-03 00:03:00,44.0,42.0,-100.00,WNW,292,1.0,-999.0,89,0.00,,,-99.99,0.000000,,2013-02-03 05:03:00,
2013-02-03 00:12:00,44.0,41.0,-100.00,NW,308,1.0,-999.0,90,0.00,,,-99.99,0.000000,,2013-02-03 05:12:00,
2013-02-03 00:22:00,44.0,41.0,-100.00,NW,308,1.0,-999.0,90,0.00,,,-99.99,0.000000,,2013-02-03 05:22:00,
2013-02-03 00:32:00,44.0,41.0,-100.00,NW,306,1.0,-999.0,91,0.00,,,-99.99,0.000000,,2013-02-03 05:32:00,
2013-02-03 00:42:00,44.0,42.0,-100.00,NW,318,1.0,-999.0,93,0.00,,,-99.99,0.000000,,2013-02-03 05:42:00,
2013-02-03 00:52:00,44.0,42.0,-100.00,NW,318,1.0,-999.0,93,0.00,,,-99.99,0.000000,,2013-02-03 05:52:00,
2013-02-03 01:02:00,44.0,42.0,-100.00,NW,313,3.0,-999.0,94,0.00,,,-99.99,0.000000,,2013-02-03 06:02:00,
2013-02-03 01:11:00,44.0,43.0,-100.00,NW,325,3.0,-999.0,95,0.00,,,-99.99,0.000000,,2013-02-03 06:11:00,
2013-02-03 01:21:00,44.0,43.0,-100.00,NW,325,3.0,-999.0,95,0.00,,,-99.99,0.000000,,2013-02-03 06:21:00,
2013-02-03 01:32:00,43.0,42.0,-100.00,WNW,301,1.0,-999.0,95,0.00,,,-99.99,0.000000,,2013-02-03 06:32:00,
2013-02-03 01:42:00,42.0,41.0,-100.00,ENE,69,1.0,-999.0,94,0.00,,,-99.99,0.000000,,2013-02-03 06:42:00,
2013-02-03 01:52:00,42.0,41.0,-100.00,ENE,69,1.0,-999.0,94,0.00,,,-99.99,0.000000,,2013-02-03 06:52:00,
2013-02-03 02:01:00,42.0,40.0,-100.00,SSE,161,1.0,-999.0,95,0.00,,,-99.99,0.000000,,2013-02-03 07:01:00,
2013-02-03 02:11:00,42.0,40.0,-100.00,SSW,195,3.0,-999.0,95,0.00,,,-99.99,0.000000,,2013-02-03 07:11:00,
2013-02-03 02:21:00,42.0,40.0,-100.00,SSW,195,3.0,-999.0,95,0.00,,,-99.99,0.000000,,2013-02-03 07:21:00,
2013-02-03 02:31:00,41.0,40.0,-100.00,NW,311,1.0,-999.0,95,0.00,,,-99.99,0.000000,,2013-02-03 07:31:00,
2013-02-03 02:42:00,41.0,40.0,-100.00,NW,314,2.0,-999.0,96,0.00,,,-99.99,0.000000,,2013-02-03 07:42:00,
2013-02-03 02:52:00,41.0,40.0,-100.00,NW,314,2.0,-999.0,96,0.00,,,-99.99,0.000000,,2013-02-03 07:52:00,
2013-02-03 03:01:00,42.0,41.0,-100.00,NW,318,4.0,-999.0,97,0.00,,,-99.99,0.000000,,2013-02-03 08:01:00,
2013-02-03 03:11:00,43.0,42.0,-100.00,NW,323,3.0,-999.0,97,0.00,,,-99.99,0.000000,,2013-02-03 08:11:00,
2013-02-03 03:22:00,43.0,42.0,-100.00,NW,323,3.0,-999.0,97,0.00,,,-99.99,0.000000,,2013-02-03 08:22:00,
2013-02-03 03:32:00,42.0,41.0,-100.00,NNW,332,2.0,-999.0,94,0.00,,,-99.99,0.000000,,2013-02-03 08:32:00,
2013-02-03 03:41:00,41.0,39.0,-100.00,NW,321,2.0,-999.0,93,0.00,,,-99.99,0.000000,,2013-02-03 08:41:00,
2013-02-03 03:52:00,41.0,39.0,-100.00,NW,321,2.0,-999.0,93,0.00,,,-99.99,0.000000,,2013-02-03 08:52:00,
2013-02-03 04:02:00,40.0,39.0,-100.00,NW,322,2.0,-999.0,94,0.00,,,-99.99,0.000000,,2013-02-03 09:02:00,
2013-02-03 04:11:00,40.0,38.0,-100.00,NNW,331,1.0,-999.0,93,0.00,,,-99.99,0.000000,,2013-02-03 09:11:00,
2013-02-03 04:21:00,40.0,38.0,-100.00,NNW,331,1.0,-999.0,93,0.00,,,-99.99,0.000000,,2013-02-03 09:21:00,
2013-02-03 04:31:00,38.0,37.0,-100.00,NW,321,2.0,-999.0,93,0.00,,,-99.99,0.000000,,2013-02-03 09:31:00,
2013-02-03 04:42:00,38.0,36.0,-100.00,NW,315,2.0,-999.0,94,0.00,,,-99.99,0.000000,,2013-02-03 09:42:00,
2013-02-03 04:52:00,38.0,36.0,-100.00,NW,315,2.0,-999.0,94,0.00,,,-99.99,0.000000,,2013-02-03 09:52:00,
2013-02-03 05:01:00,37.0,36.0,-100.00,NW,310,2.0,-999.0,94,0.00,,,-99.99,0.000000,,2013-02-03 10:01:00,
2013-02-03 05:11:00,38.0,37.0,-100.00,NNW,331,2.0,-999.0,95,0.00,,,-99.99,0.000000,,2013-02-03 10:11:00,
2013-02-03 05:21:00,38.0,37.0,-100.00,NNW,331,2.0,-999.0,95,0.00,,,-99.99,0.000000,,2013-02-03 10:21:00,
2013-02-03 05:31:00,38.0,37.0,-100.00,NNW,331,2.0,-999.0,94,0.00,,,-99.99,0.000000,,2013-02-03 10:31:00,
2013-02-03 05:42:00,39.0,37.0,-100.00,NNW,336,2.0,-999.0,90,0.00,,,-99.99,0.000000,,2013-02-03 10:42:00,
2013-02-03 05:53:00,39.0,37.0,-100.00,NNW,336,2.0,-999.0,90,0.00,,,-99.99,0.000000,,2013-02-03 10:53:00,
2013-02-03 06:02:00,39.0,37.0,-100.00,NNW,336,2.0,-999.0,90,0.00,,,-99.99,0.000000,,2013-02-03 11:02:00,
2013-02-03 06:11:00,39.0,35.0,-100.00,NNW,329,2.0,-999.0,86,0.00,,,-99.99,0.000000,,2013-02-03 11:11:00,
2013-02-03 06:22:00,39.0,35.0,-100.00,NNW,329,2.0,-999.0,86,0.00,,,-99.99,0.000000,,2013-02-03 11:22:00,
2013-02-03 06:32:00,38.0,34.0,-100.00,NW,304,1.0,-999.0,87,0.00,,,-99.99,0.000000,,2013-02-03 11:32:00,
2013-02-03 06:42:00,37.0,34.0,-100.00,NW,322,2.0,-999.0,88,0.00,,,-99.99,0.000000,,2013-02-03 11:42:00,
2013-02-03 06:52:00,37.0,34.0,-100.00,NW,322,2.0,-999.0,88,0.00,,,-99.99,0.000000,,2013-02-03 11:52:00,
2013-02-03 07:02:00,36.0,33.0,-100.00,WNW,300,1.0,-999.0,90,0.00,,,-99.99,0.000000,,2013-02-03 12:02:00,
2013-02-03 07:11:00,36.0,33.0,-100.00,NW,314,1.0,-999.0,90,0.00,,,-99.99,0.200000,,2013-02-03 12:11:00,
2013-02-03 07:22:00,36.0,33.0,-100.00,NW,314,1.0,-999.0,90,0.00,,,-99.99,0.200000,,2013-02-03 12:22:00,
2013-02-03 07:32:00,36.0,34.0,-100.00,NW,319,2.0,-999.0,91,0.00,,,-99.99,2.000000,,2013-02-03 12:32:00,
2013-02-03 07:42:00,36.0,33.0,-100.00,WSW,253,1.0,-999.0,90,0.00,,,-99.99,9.400000,,2013-02-03 12:42:00,
2013-02-03 07:53:00,36.0,33.0,-100.00,WSW,253,1.0,-999.0,90,0.00,,,-99.99,9.400000,,2013-02-03 12:53:00,
2013-02-03 08:03:00,37.0,35.0,-100.00,SSW,203,1.0,-999.0,90,0.00,,,-99.99,45.400002,,2013-02-03 13:03:00,
2013-02-03 08:11:00,40.0,36.0,-100.00,South,181,1.0,-999.0,88,0.00,,,-99.99,88.300003,,2013-02-03 13:11:00,
2013-02-03 08:21:00,40.0,36.0,-100.00,South,181,1.0,-999.0,88,0.00,,,-99.99,88.300003,,2013-02-03 13:21:00,
2013-02-03 08:32:00,43.0,39.0,-100.00,SSE,158,1.0,-999.0,86,0.00,,,-99.99,143.399994,,2013-02-03 13:32:00,
2013-02-03 08:42:00,44.0,40.0,-100.00,South,179,1.0,-999.0,86,0.00,,,-99.99,187.500000,,2013-02-03 13:42:00,
2013-02-03 08:52:00,44.0,40.0,-100.00,South,179,1.0,-999.0,86,0.00,,,-99.99,187.500000,,2013-02-03 13:52:00,
2013-02-03 09:02:00,48.0,43.0,-100.00,WNW,289,2.0,-999.0,83,0.00,,,-99.99,216.000000,,2013-02-03 14:02:00,
2013-02-03 09:12:00,50.0,44.0,-100.00,NW,312,2.0,-999.0,80,0.00,,,-99.99,286.799988,,2013-02-03 14:12:00,
2013-02-03 09:21:00,50.0,44.0,-100.00,NW,312,2.0,-999.0,80,0.00,,,-99.99,286.799988,,2013-02-03 14:21:00,
2013-02-03 09:32:00,53.0,46.0,-100.00,NW,309,3.0,-999.0,77,0.00,,,-99.99,336.000000,,2013-02-03 14:32:00,
2013-02-03 09:42:00,54.0,47.0,-100.00,NW,318,3.0,-999.0,74,0.00,,,-99.99,393.799988,,2013-02-03 14:42:00,
2013-02-03 09:52:00,54.0,47.0,-100.00,NW,318,3.0,-999.0,74,0.00,,,-99.99,393.799988,,2013-02-03 14:52:00,
2013-02-03 10:03:00,56.0,46.0,-100.00,NW,314,5.0,-999.0,70,0.00,,,-99.99,436.899994,,2013-02-03 15:03:00,
2013-02-03 10:12:00,57.0,46.0,-100.00,NW,311,5.0,-999.0,66,0.00,,,-99.99,486.500000,,2013-02-03 15:12:00,
2013-02-03 10:22:00,57.0,46.0,-100.00,NW,311,5.0,-999.0,66,0.00,,,-99.99,486.500000,,2013-02-03 15:22:00,
2013-02-03 10:33:00,59.0,47.0,-100.00,NW,318,6.0,-999.0,63,0.00,,,-99.99,531.700012,,2013-02-03 15:33:00,
2013-02-03 10:42:00,61.0,48.0,-100.00,NW,319,6.0,-999.0,62,0.00,,,-99.99,568.299988,,2013-02-03 15:42:00,
2013-02-03 10:52:00,61.0,48.0,-100.00,NW,319,6.0,-999.0,62,0.00,,,-99.99,568.299988,,2013-02-03 15:52:00,
2013-02-03 11:02:00,61.0,49.0,-100.00,NNW,338,8.0,-999.0,63,0.00,,,-99.99,588.599976,,2013-02-03 16:02:00,
2013-02-03 11:11:00,62.0,49.0,-100.00,NNW,328,7.0,-999.0,62,0.00,,,-99.99,627.500000,,2013-02-03 16:11:00,
2013-02-03 11:22:00,62.0,49.0,-100.00,NNW,328,7.0,-999.0,62,0.00,,,-99.99,627.500000,,2013-02-03 16:22:00,
2013-02-03 11:33:00,62.0,49.0,-100.00,NNW,328,7.0,-999.0,62,0.00,,,-99.99,627.500000,,2013-02-03 16:33:00,
2013-02-03 11:42:00,63.0,49.0,-100.00,NW,323,8.0,-999.0,60,0.00,,,-99.99,674.099976,,2013-02-03 16:42:00,
2013-02-03 11:52:00,63.0,49.0,-100.00,NW,323,8.0,-999.0,60,0.00,,,-99.99,674.099976,,2013-02-03 16:52:00,
2013-02-03 12:02:00,63.0,49.0,-100.00,WNW,303,7.0,-999.0,60,0.00,,,-99.99,670.299988,,2013-02-03 17:02:00,
2013-02-03 12:11:00,64.0,49.0,-100.00,NW,311,7.0,-999.0,58,0.00,,,-99.99,718.000000,,2013-02-03 17:11:00,
2013-02-03 12:22:00,64.0,49.0,-100.00,NW,311,7.0,-999.0,58,0.00,,,-99.99,718.000000,,2013-02-03 17:22:00,
2013-02-03 12:32:00,66.0,49.0,-100.00,WNW,301,7.0,-999.0,56,0.00,,,-99.99,746.000000,,2013-02-03 17:32:00,
2013-02-03 12:42:00,66.0,49.0,-100.00,WNW,293,7.0,-999.0,55,0.00,,,-99.99,684.700012,,2013-02-03 17:42:00,
2013-02-03 12:52:00,66.0,49.0,-100.00,WNW,293,7.0,-999.0,55,0.00,,,-99.99,684.700012,,2013-02-03 17:52:00,
2013-02-03 13:03:00,66.0,49.0,-100.00,West,271,6.0,-999.0,54,0.00,,,-99.99,657.099976,,2013-02-03 18:03:00,
2013-02-03 13:12:00,66.0,49.0,-100.00,West,271,6.0,-999.0,54,0.00,,,-99.99,657.099976,,2013-02-03 18:12:00,
2013-02-03 13:23:00,65.0,49.0,-100.00,WNW,298,6.0,-999.0,55,0.00,,,-99.99,452.899994,,2013-02-03 18:23:00,
2013-02-03 13:33:00,65.0,49.0,-100.00,WNW,298,6.0,-999.0,55,0.00,,,-99.99,452.899994,,2013-02-03 18:33:00,
2013-02-03 13:42:00,67.0,48.0,-100.00,WNW,283,6.0,-999.0,50,0.00,,,-99.99,671.599976,,2013-02-03 18:42:00,
2013-02-03 13:52:00,67.0,48.0,-100.00,WNW,283,6.0,-999.0,50,0.00,,,-99.99,671.599976,,2013-02-03 18:52:00,
2013-02-03 14:02:00,67.0,48.0,-100.00,WNW,283,6.0,-999.0,50,0.00,,,-99.99,671.599976,,2013-02-03 19:02:00,
2013-02-03 14:11:00,68.0,46.0,-100.00,West,271,8.0,-999.0,45,0.00,,,-99.99,692.299988,,2013-02-03 19:11:00,
2013-02-03 14:22:00,68.0,46.0,-100.00,West,271,8.0,-999.0,45,0.00,,,-99.99,692.299988,,2013-02-03 19:22:00,
2013-02-03 14:32:00,69.0,45.0,-100.00,WNW,292,6.0,-999.0,42,0.00,,,-99.99,701.000000,,2013-02-03 19:32:00,
2013-02-03 14:42:00,68.0,43.0,-100.00,West,277,9.0,-999.0,39,0.00,,,-99.99,634.700012,,2013-02-03 19:42:00,
2013-02-03 14:52:00,68.0,43.0,-100.00,West,277,9.0,-999.0,39,0.00,,,-99.99,634.700012,,2013-02-03 19:52:00,
2013-02-03 15:01:00,68.0,41.0,-100.00,West,281,9.0,-999.0,36,0.00,,,-99.99,624.799988,,2013-02-03 20:01:00,
2013-02-03 15:12:00,69.0,40.0,-100.00,West,267,8.0,-999.0,35,0.00,,,-99.99,594.500000,,2013-02-03 20:12:00,
2013-02-03 15:22:00,69.0,40.0,-100.00,West,267,8.0,-999.0,35,0.00,,,-99.99,594.500000,,2013-02-03 20:22:00,
2013-02-03 15:33:00,69.0,38.0,-100.00,WNW,284,9.0,-999.0,31,0.00,,,-99.99,564.400024,,2013-02-03 20:33:00,
2013-02-03 15:42:00,69.0,36.0,-100.00,WNW,283,8.0,-999.0,30,0.00,,,-99.99,520.900024,,2013-02-03 20:42:00,
2013-02-03 15:52:00,69.0,36.0,-100.00,WNW,283,8.0,-999.0,30,0.00,,,-99.99,520.900024,,2013-02-03 20:52:00,
2013-02-03 16:03:00,69.0,34.0,-100.00,NW,305,7.0,-999.0,28,0.00,,,-99.99,469.600006,,2013-02-03 21:03:00,
2013-02-03 16:11:00,69.0,37.0,-100.00,WNW,283,6.0,-999.0,30,0.00,,,-99.99,419.399994,,2013-02-03 21:11:00,
2013-02-03 16:21:00,69.0,37.0,-100.00,WNW,283,6.0,-999.0,30,0.00,,,-99.99,419.399994,,2013-02-03 21:21:00,
2013-02-03 16:32:00,69.0,36.0,-100.00,WNW,290,7.0,-999.0,29,0.00,,,-99.99,365.100006,,2013-02-03 21:32:00,
2013-02-03 16:42:00,69.0,34.0,-100.00,West,278,6.0,-999.0,27,0.00,,,-99.99,162.699997,,2013-02-03 21:42:00,
2013-02-03 16:52:00,69.0,34.0,-100.00,West,278,6.0,-999.0,27,0.00,,,-99.99,162.699997,,2013-02-03 21:52:00,
2013-02-03 17:01:00,68.0,33.0,-100.00,WNW,289,6.0,-999.0,26,0.00,,,-99.99,260.700012,,2013-02-03 22:01:00,
2013-02-03 17:11:00,68.0,33.0,-100.00,WNW,293,6.0,-999.0,27,0.00,,,-99.99,218.399994,,2013-02-03 22:11:00,
2013-02-03 17:21:00,68.0,33.0,-100.00,WNW,293,6.0,-999.0,27,0.00,,,-99.99,218.399994,,2013-02-03 22:21:00,
2013-02-03 17:32:00,68.0,33.0,-100.00,WNW,299,5.0,-999.0,27,0.00,,,-99.99,154.399994,,2013-02-03 22:32:00,
2013-02-03 17:42:00,67.0,33.0,-100.00,WNW,295,4.0,-999.0,28,0.00,,,-99.99,91.000000,,2013-02-03 22:42:00,
2013-02-03 17:52:00,67.0,33.0,-100.00,WNW,295,4.0,-999.0,28,0.00,,,-99.99,91.000000,,2013-02-03 22:52:00,
2013-02-03 18:01:00,66.0,33.0,-100.00,WNW,297,4.0,-999.0,29,0.00,,,-99.99,71.800003,,2013-02-03 23:01:00,
2013-02-03 18:12:00,65.0,32.0,-100.00,WNW,295,4.0,-999.0,29,0.00,,,-99.99,16.700001,,2013-02-03 23:12:00,
2013-02-03 18:22:00,65.0,32.0,-100.00,WNW,295,4.0,-999.0,29,0.00,,,-99.99,16.700001,,2013-02-03 23:22:00,
2013-02-03 18:32:00,63.0,31.0,-100.00,WNW,292,3.0,-999.0,29,0.00,,,-99.99,4.800000,,2013-02-03 23:32:00,
2013-02-03 18:42:00,61.0,31.0,-100.00,NW,307,2.0,-999.0,31,0.00,,,-99.99,0.500000,,2013-02-03 23:42:00,
2013-02-03 18:52:00,61.0,31.0,-100.00,NW,307,2.0,-999.0,31,0.00,,,-99.99,0.500000,,2013-02-03 23:52:00,
2013-02-03 19:02:00,57.0,32.0,-100.00,NW,325,2.0,-999.0,37,0.00,,,-99.99,0.000000,,2013-02-04 00:02:00,
2013-02-03 19:11:00,55.0,33.0,-100.00,West,275,3.0,-999.0,42,0.00,,,-99.99,0.000000,,2013-02-04 00:11:00,
2013-02-03 19:22:00,55.0,33.0,-100.00,West,275,3.0,-999.0,42,0.00,,,-99.99,0.000000,,2013-02-04 00:22:00,
2013-02-03 19:32:00,59.0,32.0,-100.00,WSW,250,4.0,-999.0,36,0.00,,,-99.99,0.000000,,2013-02-04 00:32:00,
2013-02-03 19:42:00,59.0,36.0,-100.00,WSW,257,5.0,-999.0,41,0.00,,,-99.99,0.000000,,2013-02-04 00:42:00,
2013-02-03 19:52:00,59.0,36.0,-100.00,WSW,257,5.0,-999.0,41,0.00,,,-99.99,0.000000,,2013-02-04 00:52:00,
2013-02-03 20:01:00,59.0,37.0,-100.00,WSW,258,4.0,-999.0,44,0.00,,,-99.99,0.000000,,2013-02-04 01:01:00,
2013-02-03 20:11:00,58.0,39.0,-100.00,WSW,255,4.0,-999.0,48,0.00,,,-99.99,0.000000,,2013-02-04 01:11:00,
2013-02-03 20:21:00,58.0,39.0,-100.00,WSW,255,4.0,-999.0,48,0.00,,,-99.99,0.000000,,2013-02-04 01:21:00,
2013-02-03 20:32:00,57.0,39.0,-100.00,West,264,5.0,-999.0,49,0.00,,,-99.99,0.000000,,2013-02-04 01:32:00,
2013-02-03 20:41:00,57.0,39.0,-100.00,West,264,5.0,-999.0,49,0.00,,,-99.99,0.000000,,2013-02-04 01:41:00,
2013-02-03 20:52:00,57.0,38.0,-100.00,West,270,5.0,-999.0,48,0.00,,,-99.99,0.000000,,2013-02-04 01:52:00,
2013-02-03 21:02:00,56.0,38.0,-100.00,West,265,4.0,-999.0,49,0.00,,,-99.99,0.000000,,2013-02-04 02:02:00,
2013-02-03 21:11:00,55.0,38.0,-100.00,West,266,4.0,-999.0,52,0.00,,,-99.99,0.000000,,2013-02-04 02:11:00,
2013-02-03 21:21:00,55.0,38.0,-100.00,West,266,4.0,-999.0,52,0.00,,,-99.99,0.000000,,2013-02-04 02:21:00,
2013-02-03 21:32:00,55.0,39.0,-100.00,West,262,4.0,-999.0,55,0.00,,,-99.99,0.000000,,2013-02-04 02:32:00,
2013-02-03 21:42:00,54.0,39.0,-100.00,West,266,4.0,-999.0,57,0.00,,,-99.99,0.000000,,2013-02-04 02:42:00,
2013-02-03 21:52:00,54.0,39.0,-100.00,West,266,4.0,-999.0,57,0.00,,,-99.99,0.000000,,2013-02-04 02:52:00,
2013-02-03 22:02:00,53.0,40.0,-100.00,West,265,3.0,-999.0,59,0.00,,,-99.99,0.000000,,2013-02-04 03:02:00,
2013-02-03 22:11:00,53.0,40.0,-100.00,WSW,258,3.0,-999.0,61,0.00,,,-99.99,0.000000,,2013-02-04 03:11:00,
2013-02-03 22:21:00,53.0,40.0,-100.00,WSW,258,3.0,-999.0,61,0.00,,,-99.99,0.000000,,2013-02-04 03:21:00,
2013-02-03 22:32:00,52.0,40.0,-100.00,WSW,256,3.0,-999.0,63,0.00,,,-99.99,0.000000,,2013-02-04 03:32:00,
2013-02-03 22:42:00,52.0,40.0,-100.00,West,264,3.0,-999.0,64,0.00,,,-99.99,0.000000,,2013-02-04 03:42:00,
2013-02-03 22:52:00,52.0,40.0,-100.00,West,264,3.0,-999.0,64,0.00,,,-99.99,0.000000,,2013-02-04 03:52:00,
2013-02-03 23:01:00,51.0,40.0,-100.00,West,270,3.0,-999.0,66,0.00,,,-99.99,0.000000,,2013-02-04 04:01:00,
2013-02-03 23:11:00,51.0,40.0,-100.00,West,272,4.0,-999.0,67,0.00,,,-99.99,0.000000,,2013-02-04 04:11:00,
2013-02-03 23:21:00,51.0,40.0,-100.00,West,272,4.0,-999.0,67,0.00,,,-99.99,0.000000,,2013-02-04 04:21:00,
2013-02-03 23:32:00,50.0,40.0,-100.00,West,278,3.0,-999.0,68,0.00,,,-99.99,0.000000,,2013-02-04 04:32:00,
2013-02-03 23:42:00,49.0,40.0,-100.00,West,278,2.0,-999.0,70,0.00,,,-99.99,0.000000,,2013-02-04 04:42:00,
2013-02-03 23:52:00,49.0,40.0,-100.00,West,278,2.0,-999.0,70,0.00,,,-99.99,0.000000,,2013-02-04 04:52:00,